sim
Sign-in with your pilot id or email,
or register
Callsign
Passwort

Schedule Details

Flight Number: DLH2370
Departure: Munich Airport (EDDM) at 14:35
Arrival: Zurich Airport (LSZH) at 15:30
Route: Lufthansa Passenger Schedule. Enter filed route here before submitting Pirep.

Weather Information
Getting current METAR information for EDDM 271050Z 20006KT 130V270 9999 FEW043 13/03 Q1006 NOSIG
Getting current METAR information for LSZH 271050Z 24012KT 210V270 9999 FEW028 SCT066 BKN075 10/03 Q1005 NOSIG

Schedule Frequency

Route Map